createdAt,value
2019-03-20T00:01:55.165Z,19.53
2019-03-20T00:04:25.560Z,21.30
2019-03-20T00:06:56.326Z,21.80
2019-03-20T00:09:26.457Z,20.03
2019-03-20T00:11:56.691Z,22.33
2019-03-20T00:14:26.786Z,23.90
2019-03-20T00:16:56.928Z,23.63
2019-03-20T00:19:27.062Z,23.47
2019-03-20T00:21:57.305Z,24.53
2019-03-20T00:24:27.434Z,25.77
2019-03-20T00:26:57.675Z,25.20
2019-03-20T00:29:27.809Z,26.03
2019-03-20T00:31:57.903Z,25.93
2019-03-20T00:34:27.959Z,24.47
2019-03-20T00:36:58.191Z,26.93
2019-03-20T00:39:28.325Z,28.17
2019-03-20T00:41:58.407Z,28.23
2019-03-20T00:44:28.524Z,30.57
2019-03-20T00:46:58.748Z,28.53
2019-03-20T00:49:28.819Z,29.47
2019-03-20T00:51:59.031Z,29.40
2019-03-20T00:54:29.250Z,29.83
2019-03-20T00:56:59.471Z,31.87
2019-03-20T00:59:29.762Z,31.90
2019-03-20T01:02:00.064Z,32.70
2019-03-20T01:04:30.252Z,32.87
2019-03-20T01:07:00.488Z,30.45
2019-03-20T01:09:30.754Z,31.57
2019-03-20T01:12:00.883Z,31.90
2019-03-20T01:14:31.579Z,30.80
2019-03-20T01:17:01.679Z,33.07
2019-03-20T01:19:31.762Z,32.73
2019-03-20T01:22:01.988Z,32.40
2019-03-20T01:24:32.200Z,33.17
2019-03-20T01:27:02.421Z,33.40
2019-03-20T01:29:32.506Z,33.30
2019-03-20T01:32:02.716Z,34.07
2019-03-20T01:34:33.244Z,31.93
2019-03-20T01:37:03.351Z,34.43
2019-03-20T01:39:33.498Z,33.93
2019-03-20T01:42:03.726Z,33.73
2019-03-20T01:44:33.766Z,35.67
2019-03-20T01:47:06.659Z,34.83
2019-03-20T01:49:35.887Z,32.53
2019-03-20T01:52:06.853Z,35.00
2019-03-20T01:54:36.942Z,36.00
2019-03-20T01:57:07.138Z,35.10
2019-03-20T01:59:37.218Z,35.83
2019-03-20T02:02:07.426Z,35.40
2019-03-20T02:04:37.502Z,35.83
2019-03-20T02:07:07.631Z,34.37
2019-03-20T02:09:37.687Z,34.57
2019-03-20T02:12:07.844Z,34.83
2019-03-20T02:14:38.282Z,34.30
2019-03-20T02:17:08.393Z,34.87
2019-03-20T02:19:38.522Z,34.50
2019-03-20T02:22:08.731Z,33.45
2019-03-20T02:24:38.851Z,32.93
2019-03-20T02:27:09.157Z,34.83
2019-03-20T02:29:39.279Z,33.73
2019-03-20T02:32:09.362Z,36.43
2019-03-20T02:34:39.487Z,34.77
2019-03-20T02:37:09.689Z,33.63
2019-03-20T02:39:39.735Z,34.73
2019-03-20T02:42:09.851Z,36.77
2019-03-20T02:44:39.917Z,34.40
2019-03-20T02:47:10.121Z,33.93
2019-03-20T02:49:40.258Z,36.90
2019-03-20T02:52:10.306Z,36.30
2019-03-20T02:54:40.378Z,35.33
2019-03-20T02:57:10.520Z,37.40
2019-03-20T02:59:40.673Z,36.33
2019-03-20T03:02:10.862Z,37.00
2019-03-20T03:04:40.984Z,38.03
2019-03-20T03:07:11.374Z,37.48
2019-03-20T03:09:41.780Z,36.90
2019-03-20T03:12:12.239Z,36.07
2019-03-20T03:14:42.555Z,38.23
2019-03-20T03:17:12.979Z,39.30
2019-03-20T03:19:43.250Z,38.13
2019-03-20T03:22:13.621Z,41.13
2019-03-20T03:24:44.015Z,38.67
2019-03-20T03:27:14.333Z,39.73
2019-03-20T03:29:44.640Z,39.87
2019-03-20T03:32:15.152Z,42.00
2019-03-20T03:34:45.446Z,38.37
2019-03-20T03:37:18.920Z,39.70
2019-03-20T03:39:49.278Z,41.97
2019-03-20T03:42:19.583Z,40.27
2019-03-20T03:44:50.033Z,39.77
2019-03-20T03:47:20.485Z,41.05
2019-03-20T03:49:50.901Z,43.30
2019-03-20T03:52:21.432Z,38.63
2019-03-20T03:54:51.714Z,39.13
2019-03-20T03:57:22.126Z,42.67
2019-03-20T03:59:52.499Z,43.37
2019-03-20T04:02:22.888Z,43.20
2019-03-20T04:04:53.371Z,41.20
2019-03-20T04:07:24.004Z,41.60
2019-03-20T04:09:54.279Z,41.50
2019-03-20T04:12:24.542Z,42.10
2019-03-20T04:14:54.849Z,42.13
2019-03-20T04:17:27.772Z,41.93
2019-03-20T04:19:58.200Z,42.50
2019-03-20T04:22:28.667Z,40.27
2019-03-20T04:24:58.917Z,41.15
2019-03-20T04:27:29.328Z,40.83
2019-03-20T04:29:59.829Z,42.87
2019-03-20T04:32:30.363Z,41.83
2019-03-20T04:35:00.681Z,42.27
2019-03-20T04:37:30.945Z,40.80
2019-03-20T04:40:01.207Z,42.97
2019-03-20T04:42:31.581Z,43.33
2019-03-20T04:45:02.077Z,41.17
2019-03-20T04:47:32.585Z,41.53
2019-03-20T04:50:02.953Z,41.13
2019-03-20T04:52:33.177Z,42.80
2019-03-20T04:55:03.704Z,40.53
2019-03-20T04:57:34.021Z,42.03
2019-03-20T05:00:04.743Z,41.83
2019-03-20T05:02:34.973Z,43.33
2019-03-20T05:05:05.356Z,42.63
2019-03-20T05:07:35.436Z,42.23
2019-03-20T05:10:16.716Z,41.27
2019-03-20T05:12:46.930Z,42.67
2019-03-20T05:15:17.131Z,41.30
2019-03-20T05:17:47.455Z,42.10
2019-03-20T05:20:17.580Z,42.65
2019-03-20T05:22:47.716Z,43.43
2019-03-20T05:25:17.836Z,44.30
2019-03-20T05:27:47.956Z,42.50
2019-03-20T05:30:18.334Z,43.70
2019-03-20T05:32:48.567Z,44.67
2019-03-20T05:35:18.617Z,43.47
2019-03-20T05:37:48.725Z,40.27
2019-03-20T05:40:18.960Z,42.17
2019-03-20T05:42:49.095Z,41.80
2019-03-20T05:45:19.313Z,40.17
2019-03-20T05:47:49.382Z,44.27
2019-03-20T05:50:19.588Z,43.00
2019-03-20T05:52:49.997Z,44.63
2019-03-20T05:55:20.235Z,44.13
2019-03-20T05:57:50.392Z,43.27
2019-03-20T06:00:21.005Z,43.75
2019-03-20T06:02:51.247Z,41.90
2019-03-20T06:05:21.370Z,40.73
2019-03-20T06:07:51.455Z,43.50
2019-03-20T06:10:21.597Z,42.53
2019-03-20T06:12:51.948Z,41.83
2019-03-20T06:15:24.544Z,43.58
2019-03-20T06:17:55.203Z,43.17
2019-03-20T06:20:25.645Z,39.90
2019-03-20T06:22:56.154Z,42.50
2019-03-20T06:25:26.521Z,40.83
2019-03-20T06:27:57.351Z,40.57
2019-03-20T06:30:27.831Z,42.13
2019-03-20T06:32:59.861Z,42.93
2019-03-20T06:35:30.471Z,42.50
2019-03-20T06:38:00.827Z,42.07
2019-03-20T06:40:31.213Z,40.23
2019-03-20T06:43:01.529Z,41.97
2019-03-20T06:45:31.974Z,42.37
2019-03-20T06:48:02.425Z,39.73
2019-03-20T06:50:32.891Z,39.37
2019-03-20T06:53:03.352Z,43.07
2019-03-20T06:55:33.741Z,41.10
2019-03-20T06:58:04.191Z,40.20
2019-03-20T07:01:16.090Z,41.37
2019-03-20T07:04:20.429Z,40.87
2019-03-20T07:07:15.355Z,40.37
2019-03-20T07:10:38.115Z,38.83
2019-03-20T07:13:08.564Z,41.90
2019-03-20T07:15:38.928Z,40.03
2019-03-20T07:18:09.431Z,41.23
2019-03-20T07:20:39.856Z,42.00
2019-03-20T07:23:10.737Z,40.37
2019-03-20T07:25:41.189Z,40.13
2019-03-20T07:28:11.563Z,38.65
2019-03-20T07:30:42.672Z,42.57
2019-03-20T07:33:13.057Z,39.40
2019-03-20T07:35:43.450Z,40.57
2019-03-20T07:38:13.919Z,39.80
2019-03-20T07:40:44.153Z,44.67
2019-03-20T07:43:14.433Z,39.43
2019-03-20T07:45:44.698Z,41.30
2019-03-20T07:48:22.003Z,42.87
2019-03-20T07:50:46.869Z,42.07
2019-03-20T07:53:17.037Z,40.43
2019-03-20T07:55:47.259Z,41.97
2019-03-20T07:58:17.513Z,40.48
2019-03-20T08:00:47.672Z,42.30
2019-03-20T08:03:17.958Z,41.42
2019-03-20T08:05:48.178Z,41.03
2019-03-20T08:08:18.532Z,42.23
2019-03-20T08:10:48.707Z,39.73
2019-03-20T08:13:19.090Z,42.15
2019-03-20T08:15:49.468Z,42.77
2019-03-20T08:18:19.594Z,42.24
2019-03-20T08:20:49.751Z,41.90
2019-03-20T08:23:20.040Z,40.30
2019-03-20T08:25:50.147Z,41.80
2019-03-20T08:28:20.299Z,41.40
2019-03-20T08:30:50.378Z,41.03
2019-03-20T08:33:20.872Z,39.47
2019-03-20T08:35:50.942Z,41.47
2019-03-20T08:38:25.460Z,39.73
2019-03-20T08:40:55.717Z,41.00
2019-03-20T08:43:25.904Z,41.40
2019-03-20T08:45:56.162Z,40.30
2019-03-20T08:48:26.457Z,41.00
2019-03-20T08:50:56.739Z,37.03
2019-03-20T08:53:26.867Z,41.47
2019-03-20T08:55:57.205Z,42.03
2019-03-20T08:58:27.370Z,40.60
2019-03-20T09:00:57.633Z,41.70
2019-03-20T09:03:27.782Z,42.87
2019-03-20T09:05:57.977Z,40.20
2019-03-20T09:08:29.801Z,42.30
2019-03-20T09:11:00.201Z,40.10
2019-03-20T09:13:30.368Z,41.83
2019-03-20T09:16:00.435Z,42.00
2019-03-20T09:18:30.606Z,43.03
2019-03-20T09:21:00.792Z,43.20
2019-03-20T09:23:31.024Z,42.13
2019-03-20T09:26:01.129Z,41.70
2019-03-20T09:28:31.409Z,42.73
2019-03-20T09:31:01.666Z,41.70
2019-03-20T09:33:31.847Z,42.08
2019-03-20T09:36:02.043Z,43.73
2019-03-20T09:38:42.738Z,41.20
2019-03-20T09:41:04.304Z,42.90
2019-03-20T09:43:34.516Z,41.93
2019-03-20T09:46:06.949Z,43.83
2019-03-20T09:48:37.083Z,42.67
2019-03-20T09:51:07.242Z,42.77
2019-03-20T09:56:16.065Z,41.60
2019-03-20T09:58:46.311Z,41.83
2019-03-20T10:01:16.530Z,39.77
2019-03-20T10:03:48.942Z,41.57
2019-03-20T10:06:19.111Z,41.90
2019-03-20T10:08:54.028Z,40.37
2019-03-20T10:11:21.447Z,40.80
2019-03-20T10:13:54.932Z,41.70
2019-03-20T10:16:25.248Z,47.40
2019-03-20T10:18:55.470Z,43.80
2019-03-20T10:21:25.669Z,41.00
2019-03-20T10:23:55.952Z,42.77
2019-03-20T10:26:26.118Z,45.53
2019-03-20T10:28:56.247Z,45.00
2019-03-20T10:31:26.375Z,42.60
2019-03-20T10:33:56.625Z,44.17
2019-03-20T10:36:26.935Z,43.53
2019-03-20T10:39:06.018Z,45.47
2019-03-20T10:41:29.464Z,45.80
2019-03-20T10:43:59.788Z,45.97
2019-03-20T10:46:30.521Z,45.23
2019-03-20T10:49:00.798Z,44.60
2019-03-20T10:51:31.052Z,44.13
2019-03-20T10:54:01.380Z,47.43
2019-03-20T10:56:31.721Z,45.30
2019-03-20T10:59:02.015Z,44.63
2019-03-20T11:01:42.063Z,45.47
2019-03-20T11:04:04.632Z,45.03
2019-03-20T11:06:34.969Z,43.30
2019-03-20T11:09:17.630Z,47.60
2019-03-20T11:11:40.291Z,46.20
2019-03-20T11:14:10.638Z,44.27
2019-03-20T11:16:40.960Z,44.40
2019-03-20T11:19:11.214Z,46.00
2019-03-20T11:21:41.424Z,45.27
2019-03-20T11:24:11.784Z,43.50
2019-03-20T11:26:41.990Z,45.07
2019-03-20T11:29:12.149Z,43.98
2019-03-20T11:31:42.470Z,44.37
2019-03-20T11:34:13.043Z,42.97
2019-03-20T11:36:43.460Z,43.80
2019-03-20T11:39:13.768Z,43.27
2019-03-20T11:41:43.984Z,44.47
2019-03-20T11:44:14.417Z,41.87
2019-03-20T11:46:44.741Z,43.23
2019-03-20T11:49:15.136Z,43.33
2019-03-20T11:51:45.389Z,43.23
2019-03-20T11:54:15.877Z,42.27
2019-03-20T11:56:46.070Z,44.10
2019-03-20T11:59:16.356Z,42.60
2019-03-20T12:01:46.580Z,42.37
2019-03-20T12:04:16.735Z,42.78
2019-03-20T12:06:46.883Z,42.33
2019-03-20T12:09:17.080Z,41.17
2019-03-20T12:11:47.183Z,43.17
2019-03-20T12:14:17.473Z,45.05
2019-03-20T12:16:47.752Z,43.83
2019-03-20T12:19:17.908Z,44.65
2019-03-20T12:21:48.242Z,45.30
2019-03-20T12:24:18.329Z,44.33
2019-03-20T12:26:48.665Z,42.33
2019-03-20T12:29:19.048Z,45.23
2019-03-20T12:31:49.354Z,44.70
2019-03-20T12:34:19.491Z,45.98
2019-03-20T12:36:49.802Z,44.93
2019-03-20T12:39:20.110Z,45.17
2019-03-20T12:41:50.350Z,44.13
2019-03-20T12:44:20.634Z,43.10
2019-03-20T12:46:50.904Z,43.77
2019-03-20T12:49:21.059Z,44.27
2019-03-20T12:51:51.373Z,44.23
2019-03-20T12:54:21.622Z,44.50
2019-03-20T12:56:52.235Z,43.00
2019-03-20T12:59:22.542Z,44.13
2019-03-20T13:01:52.828Z,44.53
2019-03-20T13:04:24.948Z,42.63
2019-03-20T13:06:55.285Z,44.90
2019-03-20T13:09:25.567Z,44.03
2019-03-20T13:11:55.850Z,41.03
2019-03-20T13:14:26.181Z,42.43
2019-03-20T13:16:56.572Z,42.97
2019-03-20T13:19:26.978Z,40.80
2019-03-20T13:21:57.316Z,42.47
2019-03-20T13:24:27.584Z,39.20
2019-03-20T13:26:58.109Z,40.17
2019-03-20T13:29:28.456Z,42.43
2019-03-20T13:31:58.693Z,40.13
2019-03-20T13:34:29.051Z,37.80
2019-03-20T13:36:59.345Z,37.43
2019-03-20T13:39:29.683Z,39.23
2019-03-20T13:41:59.817Z,39.27
2019-03-20T13:44:30.634Z,39.80
2019-03-20T13:47:01.102Z,37.30
2019-03-20T13:49:31.557Z,38.83
2019-03-20T13:52:01.796Z,37.90
2019-03-20T13:54:32.029Z,38.07
2019-03-20T13:57:02.304Z,38.50
2019-03-20T13:59:32.460Z,36.30
2019-03-20T14:02:02.795Z,36.67
2019-03-20T14:04:32.992Z,36.17
2019-03-20T14:07:03.101Z,35.00
2019-03-20T14:09:33.326Z,37.30
2019-03-20T14:12:03.959Z,37.97
2019-03-20T14:14:34.256Z,37.00
2019-03-20T14:17:04.701Z,38.20
2019-03-20T14:19:35.011Z,39.30
2019-03-20T14:22:05.291Z,38.50
2019-03-20T14:24:36.115Z,37.67
2019-03-20T14:27:07.105Z,39.18
2019-03-20T14:29:39.882Z,37.37
2019-03-20T14:32:13.377Z,37.27
2019-03-20T14:34:43.727Z,37.53
2019-03-20T14:37:14.092Z,37.45
2019-03-20T14:39:47.639Z,36.60
2019-03-20T14:42:17.950Z,35.63
2019-03-20T14:44:52.729Z,36.53
2019-03-20T14:47:23.014Z,36.48
2019-03-20T14:49:53.326Z,34.50
2019-03-20T14:52:23.636Z,33.33
2019-03-20T14:54:53.874Z,32.87
2019-03-20T14:57:25.850Z,33.27
2019-03-20T14:59:56.079Z,33.00
2019-03-20T15:02:26.394Z,32.53
2019-03-20T15:04:56.771Z,32.20
2019-03-20T15:07:26.881Z,31.80
2019-03-20T15:09:57.118Z,31.40
2019-03-20T15:12:27.462Z,34.27
2019-03-20T15:14:57.649Z,32.13
2019-03-20T15:17:28.122Z,30.87
2019-03-20T15:19:58.310Z,32.20
2019-03-20T15:22:28.440Z,32.50
2019-03-20T15:24:58.772Z,32.27
2019-03-20T15:27:28.957Z,30.60
2019-03-20T15:30:04.337Z,30.40
2019-03-20T15:32:35.738Z,30.80
2019-03-20T15:35:10.360Z,31.40
2019-03-20T15:37:43.184Z,30.97
2019-03-20T15:40:15.703Z,30.72
2019-03-20T15:42:45.956Z,30.17
2019-03-20T15:45:16.773Z,29.77
2019-03-20T15:47:46.975Z,31.50
2019-03-20T15:50:17.875Z,31.30
2019-03-20T15:52:48.177Z,30.68
2019-03-20T15:55:25.197Z,30.35
2019-03-20T15:57:55.473Z,31.00
2019-03-20T16:00:25.786Z,29.92
2019-03-20T16:03:00.082Z,31.13
2019-03-20T16:05:30.229Z,33.93
2019-03-20T16:08:00.356Z,29.90
2019-03-20T16:10:33.695Z,31.63
2019-03-20T16:13:03.885Z,29.67
2019-03-20T16:15:34.306Z,31.30
2019-03-20T16:18:04.815Z,30.27
2019-03-20T16:20:35.326Z,30.93
2019-03-20T16:23:07.100Z,30.17
2019-03-20T16:25:37.524Z,30.77
2019-03-20T16:28:08.140Z,30.57
2019-03-20T16:30:38.643Z,30.07
2019-03-20T16:33:09.083Z,30.43
2019-03-20T16:35:39.604Z,30.23
2019-03-20T16:38:10.356Z,29.57
2019-03-20T16:40:40.803Z,29.53
2019-03-20T16:43:11.199Z,27.85
2019-03-20T16:45:41.713Z,30.00
2019-03-20T16:48:12.145Z,29.05
2019-03-20T16:51:11.402Z,27.87
2019-03-20T16:53:41.333Z,28.37
2019-03-20T16:56:11.581Z,27.75
2019-03-20T16:58:41.714Z,29.40
2019-03-20T17:01:11.944Z,26.47
2019-03-20T17:03:42.076Z,27.27
2019-03-20T17:06:12.355Z,26.97
2019-03-20T17:08:42.512Z,27.37
2019-03-20T17:11:12.697Z,27.13
2019-03-20T17:13:43.008Z,28.57
2019-03-20T17:16:13.235Z,27.93
2019-03-20T17:18:43.405Z,27.50
2019-03-20T17:21:13.944Z,27.75
2019-03-20T17:23:44.436Z,27.83
2019-03-20T17:26:15.040Z,26.40
2019-03-20T17:28:45.423Z,26.83
2019-03-20T17:31:15.870Z,27.10
2019-03-20T17:33:46.399Z,26.10
2019-03-20T17:36:18.425Z,27.40
2019-03-20T17:38:48.861Z,26.33
2019-03-20T17:41:43.132Z,26.87
2019-03-20T17:44:13.643Z,26.20
2019-03-20T17:46:43.915Z,27.00
2019-03-20T17:49:13.962Z,26.00
2019-03-20T17:51:44.032Z,27.03
2019-03-20T17:54:14.192Z,26.30
2019-03-20T17:56:44.253Z,28.20
2019-03-20T17:59:14.396Z,27.42
2019-03-20T18:01:44.533Z,27.03
2019-03-20T18:04:14.618Z,28.10
2019-03-20T18:06:44.768Z,28.03
2019-03-20T18:09:15.023Z,28.07
2019-03-20T18:11:47.776Z,28.17
2019-03-20T18:14:17.113Z,28.73
2019-03-20T18:16:47.302Z,28.17
2019-03-20T18:19:17.443Z,26.15
2019-03-20T18:21:47.666Z,27.03
2019-03-20T18:24:17.738Z,25.23
2019-03-20T18:26:47.878Z,26.50
2019-03-20T18:29:18.055Z,25.02
2019-03-20T18:31:48.382Z,25.00
2019-03-20T18:34:18.646Z,23.67
2019-03-20T18:36:49.382Z,23.87
2019-03-20T18:39:20.640Z,22.97
2019-03-20T18:41:57.806Z,22.70
2019-03-20T18:44:22.850Z,23.80
2019-03-20T18:46:53.097Z,23.23
2019-03-20T18:49:23.304Z,23.30
2019-03-20T18:51:53.515Z,23.93
2019-03-20T18:54:23.748Z,23.77
2019-03-20T18:56:53.798Z,23.60
2019-03-20T18:59:23.947Z,22.50
2019-03-20T19:01:54.098Z,21.87
2019-03-20T19:04:26.090Z,22.90
2019-03-20T19:06:56.220Z,24.07
2019-03-20T19:09:26.375Z,23.23
2019-03-20T19:11:56.563Z,22.77
2019-03-20T19:14:26.624Z,22.27
2019-03-20T19:16:56.901Z,22.70
2019-03-20T19:19:27.067Z,23.30
2019-03-20T19:21:57.291Z,23.90
2019-03-20T19:24:27.497Z,23.13
2019-03-20T19:26:57.669Z,29.13
2019-03-20T19:29:27.959Z,25.07
2019-03-20T19:31:58.203Z,27.53
2019-03-20T19:34:28.441Z,29.13
2019-03-20T19:36:58.748Z,30.43
2019-03-20T19:39:29.192Z,32.83
2019-03-20T19:41:59.351Z,33.57
2019-03-20T19:44:31.539Z,31.87
2019-03-20T19:47:01.863Z,36.10
2019-03-20T19:49:32.134Z,34.08
2019-03-20T19:52:02.255Z,44.77
2019-03-20T19:54:32.506Z,38.43
2019-03-20T19:57:02.909Z,39.18
2019-03-20T19:59:33.009Z,36.50
2019-03-20T20:02:03.157Z,37.83
2019-03-20T20:04:33.295Z,37.40
2019-03-20T20:07:03.451Z,39.00
2019-03-20T20:09:33.518Z,40.13
2019-03-20T20:12:03.623Z,37.13
2019-03-20T20:14:33.709Z,40.87
2019-03-20T20:17:03.820Z,40.15
2019-03-20T20:19:34.355Z,44.10
2019-03-20T20:22:05.316Z,40.20
2019-03-20T20:24:36.017Z,41.23
2019-03-20T20:27:09.724Z,38.63
2019-03-20T20:29:40.209Z,38.03
2019-03-20T20:34:38.583Z,37.30
2019-03-20T20:37:09.214Z,35.17
2019-03-20T20:39:40.302Z,33.70
2019-03-20T20:42:10.881Z,34.10
2019-03-20T20:44:41.535Z,36.70
2019-03-20T20:47:12.559Z,34.50
2019-03-20T20:49:43.391Z,33.97
2019-03-20T20:52:19.448Z,34.17
2019-03-20T20:57:17.053Z,34.30
2019-03-20T20:59:53.516Z,31.10
2019-03-20T21:02:24.099Z,33.85
2019-03-20T21:04:54.644Z,31.23
2019-03-20T21:07:26.620Z,33.10
2019-03-20T21:09:57.179Z,33.20
2019-03-20T21:12:27.641Z,32.97
2019-03-20T21:14:58.403Z,31.53
2019-03-20T21:18:56.396Z,32.33
2019-03-20T21:21:40.124Z,33.33
2019-03-20T21:24:27.842Z,32.30
2019-03-20T21:28:03.093Z,32.97
2019-03-20T21:31:13.229Z,32.33
2019-03-20T21:34:58.991Z,30.57
2019-03-20T21:38:09.515Z,30.87
2019-03-20T21:41:24.399Z,29.47
2019-03-20T21:44:34.479Z,30.03
2019-03-20T21:47:33.243Z,30.13
2019-03-20T21:51:20.529Z,29.43
2019-03-20T21:54:59.138Z,30.25
2019-03-20T21:58:12.089Z,28.30
2019-03-20T22:01:48.950Z,28.77
2019-03-20T22:04:20.204Z,26.50
2019-03-20T22:07:10.975Z,27.10
2019-03-20T22:10:39.256Z,27.20
2019-03-20T22:13:19.719Z,28.23
2019-03-20T22:16:26.631Z,26.70
2019-03-20T22:19:41.553Z,27.55
2019-03-20T22:23:31.279Z,28.02
2019-03-20T22:27:21.774Z,27.53
2019-03-20T22:29:52.679Z,27.20
2019-03-20T22:33:23.804Z,28.98
2019-03-20T22:36:19.971Z,28.93
2019-03-20T22:40:07.828Z,28.47
2019-03-20T22:43:04.254Z,28.57
2019-03-20T22:46:31.655Z,30.17
2019-03-20T22:50:26.783Z,30.60
2019-03-20T22:53:52.043Z,32.40
2019-03-20T22:57:33.502Z,31.43
2019-03-20T23:00:05.441Z,33.63
2019-03-20T23:03:02.651Z,34.20
2019-03-20T23:05:33.800Z,35.53
2019-03-20T23:08:13.394Z,37.57
2019-03-20T23:10:45.101Z,37.13
2019-03-20T23:13:19.201Z,36.30
2019-03-20T23:15:49.169Z,33.53
2019-03-20T23:18:20.408Z,33.40
2019-03-20T23:20:51.536Z,36.43
2019-03-20T23:23:22.541Z,34.58
2019-03-20T23:25:53.478Z,36.77
2019-03-20T23:28:25.246Z,36.23
2019-03-20T23:30:56.343Z,37.17
2019-03-20T23:33:27.369Z,36.40
2019-03-20T23:35:58.542Z,37.37
2019-03-20T23:38:29.626Z,37.03
2019-03-20T23:41:00.603Z,38.17
2019-03-20T23:43:31.476Z,37.57
2019-03-20T23:46:02.594Z,36.67
2019-03-20T23:49:00.048Z,38.23
2019-03-20T23:51:31.082Z,36.23
2019-03-20T23:54:02.122Z,35.83
2019-03-20T23:56:34.992Z,37.70
2019-03-20T23:59:06.743Z,36.67
